createdAt,value
2019-04-23T00:01:08.905Z,102183.83
2019-04-23T00:03:30.570Z,102191.32
2019-04-23T00:06:08.532Z,102185.95
2019-04-23T00:08:36.543Z,102185.53
2019-04-23T00:11:09.929Z,102185.57
2019-04-23T00:13:37.119Z,102182.89
2019-04-23T00:18:42.265Z,102182.37
2019-04-23T00:21:20.692Z,102181.47
2019-04-23T00:24:03.079Z,102179.67
2019-04-23T00:26:30.657Z,102188.02
2019-04-23T00:28:58.873Z,102183.63
2019-04-23T00:31:35.067Z,102184.48
2019-04-23T00:34:01.118Z,102187.08
2019-04-23T00:36:47.610Z,102187.55
2019-04-23T00:39:17.348Z,102185.34
2019-04-23T00:41:36.252Z,102179.20
2019-04-23T00:44:09.226Z,102178.69
2019-04-23T00:51:48.253Z,102183.44
2019-04-23T00:54:24.086Z,102180.73
2019-04-23T00:59:23.213Z,102182.86
2019-04-23T01:01:56.908Z,102185.07
2019-04-23T01:04:27.411Z,102186.44
2019-04-23T01:07:02.550Z,102185.91
2019-04-23T01:09:39.025Z,102190.25
2019-04-23T01:12:06.094Z,102191.56
2019-04-23T01:14:33.913Z,102193.72
2019-04-23T01:17:11.379Z,102195.39
2019-04-23T01:19:58.022Z,102197.09
2019-04-23T01:22:06.466Z,102193.13
2019-04-23T01:25:08.763Z,102186.41
2019-04-23T01:30:34.373Z,102197.00
2019-04-23T01:33:03.873Z,102190.49
2019-04-23T01:35:36.030Z,102189.50
2019-04-23T01:38:06.141Z,102192.66
2019-04-23T01:43:08.004Z,102186.45
2019-04-23T01:45:34.307Z,102184.66
2019-04-23T01:48:12.871Z,102176.69
2019-04-23T01:50:57.596Z,102189.80
2019-04-23T01:53:19.490Z,102188.48
2019-04-23T01:55:54.470Z,102181.05
2019-04-23T01:58:40.277Z,102173.94
2019-04-23T02:01:00.726Z,102178.31
2019-04-23T02:03:34.500Z,102178.20
2019-04-23T02:08:32.333Z,102177.28
2019-04-23T02:11:19.969Z,102180.77
2019-04-23T02:13:38.358Z,102168.91
2019-04-23T02:16:25.887Z,102175.06
2019-04-23T02:18:43.927Z,102170.23
2019-04-23T02:21:13.660Z,102174.12
2019-04-23T02:23:47.958Z,102178.13
2019-04-23T02:26:26.358Z,102173.75
2019-04-23T02:29:06.710Z,102175.44
2019-04-23T02:34:14.339Z,102176.81
2019-04-23T02:36:39.972Z,102177.64
2019-04-23T02:39:13.034Z,102174.54
2019-04-23T02:46:56.799Z,102174.47
2019-04-23T02:51:51.006Z,102171.84
2019-04-23T02:56:51.518Z,102173.14
2019-04-23T02:59:32.694Z,102178.84
2019-04-23T03:02:12.021Z,102174.41
2019-04-23T03:07:01.353Z,102175.30
2019-04-23T03:09:43.213Z,102182.25
2019-04-23T03:12:05.874Z,102180.45
2019-04-23T03:14:34.328Z,102183.48
2019-04-23T03:17:03.428Z,102179.30
2019-04-23T03:20:15.821Z,102184.92
2019-04-23T03:22:58.958Z,102178.34
2019-04-23T03:25:36.223Z,102185.30
2019-04-23T03:28:23.055Z,102185.30
2019-04-23T03:38:43.420Z,102205.14
2019-04-23T03:41:15.727Z,102198.63
2019-04-23T03:43:38.968Z,102196.90
2019-04-23T03:46:16.354Z,102197.38
2019-04-23T03:48:54.869Z,102199.03
2019-04-23T03:51:16.680Z,102199.03
2019-04-23T03:53:52.281Z,102207.91
2019-04-23T03:56:22.393Z,102207.91
2019-04-23T03:58:47.400Z,102204.70
2019-04-23T04:09:14.916Z,102212.41
2019-04-23T04:11:25.480Z,102209.20
2019-04-23T04:16:51.775Z,102205.59
2019-04-23T04:22:04.753Z,102209.17
2019-04-23T04:29:40.358Z,102212.52
2019-04-23T04:32:00.350Z,102205.56
2019-04-23T04:39:44.431Z,102216.93
2019-04-23T04:42:28.545Z,102218.75
2019-04-23T04:47:19.808Z,102217.64
2019-04-23T04:54:44.417Z,102230.45
2019-04-23T05:00:06.758Z,102229.17
2019-04-23T05:05:46.321Z,102231.03
2019-04-23T05:12:45.268Z,102229.19
2019-04-23T05:18:00.024Z,102222.47
2019-04-23T05:23:09.193Z,102231.59
2019-04-23T05:25:17.978Z,102240.47
2019-04-23T05:28:02.844Z,102241.58
2019-04-23T05:33:07.953Z,102229.81
2019-04-23T05:36:02.034Z,102230.88
2019-04-23T05:40:44.964Z,102240.66
2019-04-23T05:43:15.858Z,102234.60
2019-04-23T05:45:41.363Z,102246.13
2019-04-23T05:48:21.560Z,102243.48
2019-04-23T05:50:59.279Z,102242.80
2019-04-23T05:53:18.603Z,102251.67
2019-04-23T05:55:56.828Z,102238.44
2019-04-23T05:58:31.521Z,102237.58
2019-04-23T06:09:20.384Z,102249.95
2019-04-23T06:11:58.594Z,102250.91
2019-04-23T06:14:41.061Z,102251.85
2019-04-23T06:17:00.477Z,102247.95
2019-04-23T06:19:45.963Z,102241.84
2019-04-23T06:22:26.853Z,102237.18
2019-04-23T06:24:32.995Z,102251.79
2019-04-23T06:27:06.721Z,102244.44
2019-04-23T06:29:50.145Z,102239.67
2019-04-23T06:32:06.523Z,102237.08
2019-04-23T06:34:43.550Z,102239.34
2019-04-23T06:37:24.480Z,102239.89
2019-04-23T06:42:14.462Z,102234.77
2019-04-23T06:44:58.447Z,102236.59
2019-04-23T06:47:37.403Z,102234.02
2019-04-23T06:50:14.827Z,102230.56
2019-04-23T06:52:43.874Z,102228.88
2019-04-23T06:55:25.506Z,102229.87
2019-04-23T06:57:48.084Z,102228.14
2019-04-23T07:00:22.257Z,102226.48
2019-04-23T07:02:54.215Z,102223.03
2019-04-23T07:05:29.762Z,102219.98
2019-04-23T07:07:58.343Z,102222.25
2019-04-23T07:10:34.813Z,102221.42
2019-04-23T07:13:08.239Z,102221.48
2019-04-23T07:18:04.036Z,102225.95
2019-04-23T07:20:40.291Z,102225.09
2019-04-23T07:23:19.659Z,102218.06
2019-04-23T07:25:49.936Z,102215.43
2019-04-23T07:28:23.387Z,102221.67
2019-04-23T07:30:51.577Z,102222.62
2019-04-23T07:33:31.114Z,102217.33
2019-04-23T07:35:51.919Z,102219.14
2019-04-23T07:38:57.870Z,102217.38
2019-04-23T07:41:38.054Z,102222.72
2019-04-23T07:47:21.307Z,102213.48
2019-04-23T07:50:08.047Z,102212.16
2019-04-23T07:52:24.196Z,102208.63
2019-04-23T07:55:02.377Z,102208.64
2019-04-23T07:57:29.166Z,102206.86
2019-04-23T08:00:00.960Z,102200.70
2019-04-23T08:02:31.415Z,102059.33
2019-04-23T08:05:11.249Z,102209.09
2019-04-23T08:07:41.102Z,102208.20
2019-04-23T08:12:43.787Z,102205.05
2019-04-23T08:15:09.107Z,102204.07
2019-04-23T08:17:34.690Z,102197.61
2019-04-23T08:20:11.245Z,102190.31
2019-04-23T08:22:47.499Z,102186.34
2019-04-23T08:25:37.206Z,102192.86
2019-04-23T08:28:13.646Z,102175.73
2019-04-23T08:30:49.586Z,102181.80
2019-04-23T08:33:15.765Z,102174.42
2019-04-23T08:35:54.316Z,102176.17
2019-04-23T08:38:26.119Z,102171.70
2019-04-23T08:41:06.035Z,102177.45
2019-04-23T08:43:42.723Z,102180.05
2019-04-23T08:46:33.064Z,102168.46
2019-04-23T08:49:05.982Z,102161.59
2019-04-23T08:51:44.538Z,102156.84
2019-04-23T08:54:08.724Z,102154.37
2019-04-23T08:56:42.825Z,102159.88
2019-04-23T08:59:08.234Z,102158.78
2019-04-23T09:01:50.666Z,102153.41
2019-04-23T09:04:09.338Z,102160.97
2019-04-23T09:06:34.975Z,102154.98
2019-04-23T09:09:13.184Z,102150.23
2019-04-23T09:14:05.303Z,102141.69
2019-04-23T09:16:54.452Z,102137.83
2019-04-23T09:19:23.499Z,102145.02
2019-04-23T09:22:01.980Z,102146.72
2019-04-23T09:24:24.234Z,102139.55
2019-04-23T09:26:59.007Z,102136.89
2019-04-23T09:29:36.585Z,102145.41
2019-04-23T09:38:04.129Z,102122.87
2019-04-23T09:41:13.033Z,102121.84
2019-04-23T09:43:31.584Z,102119.22
2019-04-23T09:46:17.663Z,102114.81
2019-04-23T09:48:50.964Z,102115.50
2019-04-23T09:51:23.536Z,102113.23
2019-04-23T09:53:58.014Z,102112.30
2019-04-23T09:56:32.410Z,102110.46
2019-04-23T09:59:10.935Z,102111.65
2019-04-23T10:01:44.126Z,102106.55
2019-04-23T10:03:53.382Z,102100.11
2019-04-23T10:06:19.137Z,102102.08
2019-04-23T10:08:51.389Z,102095.45
2019-04-23T10:11:18.161Z,102100.73
2019-04-23T10:13:48.497Z,102097.28
2019-04-23T10:16:21.363Z,102103.66
2019-04-23T10:18:50.996Z,102097.36
2019-04-23T10:21:21.481Z,102094.15
2019-04-23T10:23:52.762Z,102086.86
2019-04-23T10:26:24.043Z,102082.86
2019-04-23T10:29:02.125Z,102077.28
2019-04-23T10:31:33.352Z,102077.57
2019-04-23T10:34:04.416Z,102077.57
2019-04-23T10:36:36.175Z,102064.05
2019-04-23T10:39:15.512Z,102000.83
2019-04-23T10:41:45.199Z,102055.98
2019-04-23T10:44:29.136Z,102070.98
2019-04-23T10:47:44.711Z,102071.79
2019-04-23T10:50:39.986Z,102059.83
2019-04-23T10:53:23.451Z,102057.86
2019-04-23T10:55:46.860Z,102050.73
2019-04-23T10:58:15.808Z,102055.97
2019-04-23T11:00:48.917Z,102053.19
2019-04-23T11:03:31.790Z,102039.41
2019-04-23T11:05:59.079Z,102046.08
2019-04-23T11:08:18.774Z,102050.08
2019-04-23T11:10:50.337Z,102051.02
2019-04-23T11:13:45.275Z,102029.27
2019-04-23T11:16:44.736Z,102032.72
2019-04-23T11:21:34.567Z,102024.98
2019-04-23T11:23:50.185Z,102019.38
2019-04-23T11:26:31.960Z,102007.69
2019-04-23T11:28:51.990Z,102000.22
2019-04-23T11:36:47.879Z,102013.53
2019-04-23T11:39:16.752Z,102010.12
2019-04-23T11:41:45.637Z,102008.66
2019-04-23T11:49:26.624Z,102001.64
2019-04-23T11:51:54.006Z,102000.20
2019-04-23T11:54:17.514Z,102014.06
2019-04-23T11:57:14.119Z,102007.25
2019-04-23T11:59:31.951Z,102003.61
2019-04-23T12:02:13.572Z,101988.01
2019-04-23T12:08:20.628Z,101988.04
2019-04-23T12:11:42.602Z,101985.70
2019-04-23T12:14:24.220Z,101969.70
2019-04-23T12:24:56.849Z,101959.11
2019-04-23T12:27:08.151Z,101965.69
2019-04-23T12:29:37.356Z,101961.44
2019-04-23T12:37:45.012Z,101946.64
2019-04-23T12:43:11.973Z,101943.47
2019-04-23T12:48:15.623Z,101924.58
2019-04-23T12:53:05.747Z,101916.41
2019-04-23T12:58:03.824Z,101907.35
2019-04-23T13:03:26.101Z,101912.37
2019-04-23T13:05:34.461Z,101903.11
2019-04-23T13:08:23.345Z,101906.98
2019-04-23T13:10:39.928Z,101895.91
2019-04-23T13:13:27.963Z,101891.27
2019-04-23T13:18:17.590Z,101886.50
2019-04-23T13:20:41.944Z,101888.05
2019-04-23T13:23:22.308Z,101880.02
2019-04-23T13:25:59.606Z,101872.72
2019-04-23T13:28:38.763Z,101859.94
2019-04-23T13:31:22.620Z,101870.28
2019-04-23T13:43:47.933Z,101837.13
2019-04-23T13:46:17.784Z,101837.02
2019-04-23T13:48:47.039Z,101833.84
2019-04-23T13:51:26.270Z,101839.42
2019-04-23T13:53:51.341Z,101827.16
2019-04-23T13:57:12.716Z,101831.05
2019-04-23T13:59:09.616Z,101832.30
2019-04-23T14:01:32.385Z,101833.73
2019-04-23T14:04:24.498Z,101813.56
2019-04-23T14:06:43.065Z,101810.61
2019-04-23T14:09:19.946Z,101801.60
2019-04-23T14:11:38.623Z,101800.48
2019-04-23T14:14:34.454Z,101811.70
2019-04-23T14:17:00.200Z,101800.27
2019-04-23T14:19:30.183Z,101798.53
2019-04-23T14:22:07.097Z,101791.41
2019-04-23T14:24:45.805Z,101779.36
2019-04-23T14:27:18.142Z,101769.17
2019-04-23T14:32:16.004Z,101763.66
2019-04-23T14:34:50.934Z,101766.50
2019-04-23T14:37:14.888Z,101764.48
2019-04-23T14:39:45.846Z,101757.07
2019-04-23T14:45:08.075Z,101753.22
2019-04-23T14:47:27.974Z,101754.34
2019-04-23T14:50:29.320Z,101736.23
2019-04-23T14:52:43.485Z,101751.84
2019-04-23T14:55:40.311Z,101755.27
2019-04-23T14:57:40.334Z,101738.27
2019-04-23T15:00:15.609Z,101747.94
2019-04-23T15:02:44.975Z,101742.20
2019-04-23T15:07:42.206Z,101742.37
2019-04-23T15:10:34.779Z,101731.87
2019-04-23T15:12:54.010Z,101728.08
2019-04-23T15:15:21.122Z,101721.45
2019-04-23T15:20:51.787Z,101719.75
2019-04-23T15:23:17.011Z,101713.34
2019-04-23T15:28:06.841Z,101720.75
2019-04-23T15:30:40.106Z,101718.80
2019-04-23T15:33:19.837Z,101722.16
2019-04-23T15:35:53.298Z,101711.45
2019-04-23T15:40:45.665Z,101721.14
2019-04-23T15:43:14.588Z,101719.87
2019-04-23T15:45:52.523Z,101714.06
2019-04-23T15:48:24.049Z,101709.46
2019-04-23T15:51:10.091Z,101711.52
2019-04-23T15:53:25.029Z,101712.16
2019-04-23T15:56:13.731Z,101706.86
2019-04-23T15:58:50.604Z,101714.39
2019-04-23T16:03:28.991Z,101700.58
2019-04-23T16:05:57.465Z,101699.69
2019-04-23T16:11:39.501Z,101708.23
2019-04-23T16:14:17.684Z,101710.25
2019-04-23T16:16:46.210Z,101697.40
2019-04-23T16:22:04.669Z,101697.31
2019-04-23T16:24:26.410Z,101692.08
2019-04-23T16:27:09.316Z,101686.92
2019-04-23T16:30:32.567Z,101688.26
2019-04-23T16:32:18.866Z,101696.78
2019-04-23T16:34:36.586Z,101695.13
2019-04-23T16:39:56.531Z,101702.17
2019-04-23T16:42:24.850Z,101690.27
2019-04-23T16:45:07.579Z,101689.52
2019-04-23T16:47:33.213Z,101699.58
2019-04-23T16:50:04.477Z,101687.66
2019-04-23T16:52:26.198Z,101690.84
2019-04-23T16:57:45.886Z,101688.75
2019-04-23T17:00:24.481Z,101699.05
2019-04-23T17:02:47.586Z,101695.61
2019-04-23T17:05:18.021Z,101699.25
2019-04-23T17:07:53.344Z,101702.93
2019-04-23T17:10:39.684Z,101696.33
2019-04-23T17:12:51.879Z,101701.80
2019-04-23T17:15:27.491Z,101656.58
2019-04-23T17:17:55.702Z,101697.60
2019-04-23T17:20:33.865Z,101698.55
2019-04-23T17:23:10.618Z,101701.83
2019-04-23T17:25:26.446Z,101694.00
2019-04-23T17:30:32.353Z,101695.47
2019-04-23T17:33:24.057Z,101706.20
2019-04-23T17:36:21.061Z,101707.20
2019-04-23T17:39:01.369Z,101706.94
2019-04-23T17:41:49.561Z,101710.23
2019-04-23T17:44:20.392Z,101708.56
2019-04-23T17:46:43.178Z,101712.69
2019-04-23T17:52:03.135Z,101714.30
2019-04-23T17:54:17.867Z,101726.85
2019-04-23T17:57:05.509Z,101730.51
2019-04-23T18:02:27.068Z,101749.72
2019-04-23T18:04:34.750Z,101736.55
2019-04-23T18:07:04.561Z,101734.93
2019-04-23T18:09:57.038Z,101748.28
2019-04-23T18:12:13.460Z,101743.09
2019-04-23T18:14:39.253Z,101752.91
2019-04-23T18:17:20.823Z,101754.84
2019-04-23T18:20:05.305Z,101752.28
2019-04-23T18:22:42.205Z,101756.42
2019-04-23T18:25:25.842Z,101764.55
2019-04-23T18:28:08.887Z,101763.72
2019-04-23T18:31:00.641Z,101765.18
2019-04-23T18:36:05.329Z,101773.39
2019-04-23T18:38:46.629Z,101765.45
2019-04-23T18:43:44.679Z,101774.98
2019-04-23T18:48:50.495Z,101782.73
2019-04-23T18:51:42.174Z,101785.39
2019-04-23T18:56:44.681Z,101781.53
2019-04-23T18:59:02.420Z,101783.38
2019-04-23T19:01:31.071Z,101776.81
2019-04-23T19:04:30.568Z,101784.42
2019-04-23T19:06:51.298Z,101781.84
2019-04-23T19:13:07.186Z,101781.47
2019-04-23T19:23:27.306Z,101781.73
2019-04-23T19:28:25.628Z,101777.47
2019-04-23T19:31:07.549Z,101779.28
2019-04-23T19:33:45.384Z,101778.42
2019-04-23T19:36:26.006Z,101774.47
2019-04-23T19:38:47.385Z,101770.62
2019-04-23T19:41:19.455Z,101768.50
2019-04-23T19:43:55.576Z,101769.86
2019-04-23T19:46:39.748Z,101775.24
2019-04-23T19:49:05.767Z,101771.25
2019-04-23T19:51:38.979Z,101772.17
2019-04-23T19:54:09.527Z,101769.98
2019-04-23T19:56:43.176Z,101764.67
2019-04-23T19:59:04.946Z,101765.62
2019-04-23T20:01:39.963Z,101760.31
2019-04-23T20:04:04.463Z,101758.53
2019-04-23T20:07:06.174Z,101761.25
2019-04-23T20:09:38.393Z,101761.31
2019-04-23T20:11:54.850Z,101760.90
2019-04-23T20:14:29.590Z,101754.79
2019-04-23T20:17:21.371Z,101751.69
2019-04-23T20:19:37.690Z,101746.38
2019-04-23T20:24:52.603Z,101743.78
2019-04-23T20:27:11.851Z,101743.89
2019-04-23T20:35:11.321Z,101742.23
2019-04-23T20:38:17.281Z,101734.34
2019-04-23T20:40:25.774Z,101737.91
2019-04-23T20:45:20.339Z,101732.67
2019-04-23T20:50:27.646Z,101733.59
2019-04-23T20:52:59.840Z,101726.09
2019-04-23T21:02:29.999Z,101736.38
2019-04-23T21:05:03.557Z,101724.89
2019-04-23T21:07:40.611Z,101731.13
2019-04-23T21:10:08.933Z,101718.75
2019-04-23T21:15:10.204Z,101721.08
2019-04-23T21:17:47.511Z,101713.55
2019-04-23T21:22:50.401Z,101714.95
2019-04-23T21:25:14.832Z,101718.04
2019-04-23T21:28:04.307Z,101723.34
2019-04-23T21:38:58.560Z,101699.99
2019-04-23T21:41:33.305Z,101713.69
2019-04-23T21:46:38.252Z,101711.97
2019-04-23T21:54:14.957Z,101696.12
2019-04-23T21:56:37.138Z,101703.23
2019-04-23T22:01:44.939Z,101691.32
2019-04-23T22:04:33.142Z,101696.19
2019-04-23T22:06:47.776Z,101692.69
2019-04-23T22:09:21.849Z,101674.14
2019-04-23T22:14:29.085Z,101681.69
2019-04-23T22:19:45.371Z,101684.83
2019-04-23T22:22:07.726Z,101681.28
2019-04-23T22:24:24.889Z,101672.89
2019-04-23T22:26:58.182Z,101672.88
2019-04-23T22:31:53.714Z,101658.32
2019-04-23T22:34:40.303Z,101660.98
2019-04-23T22:37:23.554Z,101654.81
2019-04-23T22:39:45.811Z,101652.22
2019-04-23T22:47:07.127Z,101651.34
2019-04-23T22:50:02.201Z,101636.80
2019-04-23T22:52:33.881Z,101645.22
2019-04-23T22:58:08.068Z,101632.03
2019-04-23T23:00:14.359Z,101629.38
2019-04-23T23:02:59.513Z,101630.29
2019-04-23T23:08:07.851Z,101623.72
2019-04-23T23:10:44.198Z,101623.31
2019-04-23T23:13:13.807Z,101611.81
2019-04-23T23:15:49.343Z,101610.55
2019-04-23T23:18:17.950Z,101618.03
2019-04-23T23:20:55.338Z,101612.75
2019-04-23T23:25:55.415Z,101612.33
2019-04-23T23:28:31.446Z,101613.66
2019-04-23T23:31:04.099Z,101608.33
2019-04-23T23:33:30.224Z,101607.93
2019-04-23T23:41:11.383Z,101596.94
2019-04-23T23:43:54.928Z,101607.55
2019-04-23T23:48:46.040Z,101603.13
2019-04-23T23:51:19.050Z,101593.41
2019-04-23T23:53:58.735Z,101601.38
2019-04-23T23:56:15.834Z,101592.54
2019-04-23T23:58:56.963Z,101588.59
